createdAt,value
2018-08-04T00:01:10.148Z,24.90
2018-08-04T00:03:38.677Z,24.80
2018-08-04T00:06:07.171Z,24.80
2018-08-04T00:08:35.632Z,24.80
2018-08-04T00:11:04.041Z,24.70
2018-08-04T00:13:32.488Z,24.60
2018-08-04T00:16:01.148Z,24.60
2018-08-04T00:18:30.460Z,24.50
2018-08-04T00:20:58.904Z,24.50
2018-08-04T00:23:27.741Z,24.40
2018-08-04T00:25:56.311Z,24.30
2018-08-04T00:28:24.820Z,24.30
2018-08-04T00:30:53.209Z,24.20
2018-08-04T00:33:21.624Z,24.20
2018-08-04T00:35:50.956Z,24.10
2018-08-04T00:38:19.350Z,24.10
2018-08-04T00:40:47.952Z,24.10
2018-08-04T00:43:16.619Z,24.10
2018-08-04T00:45:45.056Z,24.10
2018-08-04T00:48:13.459Z,24.10
2018-08-04T00:50:41.946Z,23.90
2018-08-04T00:53:10.401Z,23.90
2018-08-04T00:55:38.777Z,23.80
2018-08-04T00:58:07.419Z,23.80
2018-08-04T01:00:35.826Z,23.70
2018-08-04T01:03:04.228Z,23.60
2018-08-04T01:05:32.635Z,23.60
2018-08-04T01:08:01.021Z,23.50
2018-08-04T01:10:29.475Z,23.50
2018-08-04T01:12:57.888Z,23.40
2018-08-04T01:15:26.276Z,23.40
2018-08-04T01:17:54.689Z,23.30
2018-08-04T01:20:23.099Z,23.30
2018-08-04T01:22:51.491Z,23.30
2018-08-04T01:25:19.917Z,23.20
2018-08-04T01:27:48.851Z,23.10
2018-08-04T01:30:17.427Z,23.10
2018-08-04T01:32:45.824Z,23.00
2018-08-04T01:35:14.200Z,23.00
2018-08-04T01:37:42.600Z,22.90
2018-08-04T01:40:11.040Z,22.90
2018-08-04T01:42:39.449Z,22.80
2018-08-04T01:45:08.215Z,22.80
2018-08-04T01:47:36.611Z,22.70
2018-08-04T01:50:05.255Z,22.60
2018-08-04T01:52:33.640Z,22.60
2018-08-04T01:55:02.044Z,22.50
2018-08-04T01:57:30.460Z,22.50
2018-08-04T01:59:58.848Z,22.50
2018-08-04T02:02:27.468Z,22.50
2018-08-04T02:04:55.876Z,22.40
2018-08-04T02:07:24.294Z,22.30
2018-08-04T02:09:52.718Z,22.30
2018-08-04T02:12:21.113Z,22.20
2018-08-04T02:14:49.532Z,22.20
2018-08-04T02:17:17.928Z,22.10
2018-08-04T02:19:46.335Z,22.10
2018-08-04T02:22:14.756Z,22.10
2018-08-04T02:24:43.208Z,22.10
2018-08-04T02:27:11.640Z,22.10
2018-08-04T02:29:40.013Z,22.00
2018-08-04T02:32:08.436Z,22.00
2018-08-04T02:34:36.887Z,21.90
2018-08-04T02:37:05.553Z,21.90
2018-08-04T02:39:33.948Z,21.80
2018-08-04T02:42:02.427Z,21.80
2018-08-04T02:44:30.834Z,21.70
2018-08-04T02:46:59.241Z,21.70
2018-08-04T02:49:27.620Z,21.70
2018-08-04T02:51:56.033Z,21.60
2018-08-04T02:54:24.413Z,21.60
2018-08-04T02:56:52.853Z,21.50
2018-08-04T02:59:21.254Z,21.50
2018-08-04T03:01:49.758Z,21.50
2018-08-04T03:04:18.393Z,21.50
2018-08-04T03:06:46.793Z,21.30
2018-08-04T03:09:15.169Z,21.30
2018-08-04T03:11:43.584Z,21.20
2018-08-04T03:14:11.982Z,21.10
2018-08-04T03:16:40.568Z,21.10
2018-08-04T03:19:08.944Z,21.20
2018-08-04T03:21:37.357Z,21.20
2018-08-04T03:24:05.768Z,21.20
2018-08-04T03:26:34.159Z,21.20
2018-08-04T03:29:02.603Z,21.20
2018-08-04T03:31:30.999Z,21.20
2018-08-04T03:33:59.411Z,21.30
2018-08-04T03:36:27.856Z,21.20
2018-08-04T03:38:57.576Z,21.20
2018-08-04T03:41:26.302Z,21.20
2018-08-04T03:43:54.700Z,21.20
2018-08-04T03:46:23.127Z,21.20
2018-08-04T03:48:51.635Z,21.20
2018-08-04T03:51:20.081Z,21.20
2018-08-04T03:53:48.556Z,21.30
2018-08-04T03:56:17.184Z,21.30
2018-08-04T03:58:45.584Z,21.30
2018-08-04T04:01:14.004Z,21.30
2018-08-04T04:03:42.709Z,21.30
2018-08-04T04:06:11.092Z,21.30
2018-08-04T04:08:39.686Z,21.40
2018-08-04T04:11:08.114Z,21.40
2018-08-04T04:13:36.617Z,21.40
2018-08-04T04:16:05.052Z,21.40
2018-08-04T04:18:33.476Z,21.30
2018-08-04T04:21:01.925Z,21.30
2018-08-04T04:23:30.325Z,21.40
2018-08-04T04:25:58.738Z,21.40
2018-08-04T04:28:27.120Z,21.40
2018-08-04T04:30:55.508Z,21.30
2018-08-04T04:35:52.818Z,21.30
2018-08-04T04:38:21.223Z,21.40
2018-08-04T04:40:49.617Z,21.40
2018-08-04T04:43:18.049Z,21.30
2018-08-04T04:45:46.479Z,21.30
2018-08-04T04:48:15.121Z,21.30
2018-08-04T04:50:43.522Z,21.40
2018-08-04T04:53:11.930Z,21.40
2018-08-04T04:55:40.597Z,21.50
2018-08-04T04:58:09.037Z,21.50
2018-08-04T05:00:37.444Z,21.60
2018-08-04T05:03:05.851Z,21.60
2018-08-04T05:05:34.273Z,21.60
2018-08-04T05:08:02.688Z,21.70
2018-08-04T05:10:31.132Z,21.70
2018-08-04T05:12:59.756Z,21.70
2018-08-04T05:15:28.156Z,21.80
2018-08-04T05:17:56.545Z,21.90
2018-08-04T05:20:24.956Z,22.10
2018-08-04T05:22:53.367Z,22.40
2018-08-04T05:25:21.789Z,22.60
2018-08-04T05:27:50.207Z,22.70
2018-08-04T05:30:18.624Z,22.60
2018-08-04T05:32:47.043Z,22.60
2018-08-04T05:35:15.492Z,22.60
2018-08-04T05:37:43.887Z,22.50
2018-08-04T05:40:12.293Z,22.50
2018-08-04T05:42:40.740Z,22.40
2018-08-04T05:45:09.868Z,22.40
2018-08-04T05:47:38.679Z,22.40
2018-08-04T05:50:07.682Z,22.40
2018-08-04T05:52:36.061Z,22.40
2018-08-04T05:55:05.048Z,22.40
2018-08-04T05:57:33.455Z,22.50
2018-08-04T06:00:01.860Z,22.60
2018-08-04T06:02:30.240Z,22.60
2018-08-04T06:04:58.678Z,22.70
2018-08-04T06:07:27.071Z,22.70
2018-08-04T06:09:55.995Z,22.80
2018-08-04T06:12:24.444Z,22.80
2018-08-04T06:14:52.860Z,22.90
2018-08-04T06:17:21.292Z,22.90
2018-08-04T06:19:49.692Z,22.90
2018-08-04T06:22:18.104Z,23.00
2018-08-04T06:24:46.495Z,23.10
2018-08-04T06:27:14.921Z,23.10
2018-08-04T06:29:43.312Z,23.10
2018-08-04T06:32:11.968Z,23.10
2018-08-04T06:34:40.404Z,23.20
2018-08-04T06:37:08.823Z,23.20
2018-08-04T06:42:05.558Z,23.50
2018-08-04T06:44:34.309Z,23.60
2018-08-04T06:47:02.781Z,23.80
2018-08-04T06:49:31.277Z,23.80
2018-08-04T06:51:59.672Z,23.90
2018-08-04T06:54:28.094Z,24.00
2018-08-04T06:56:56.515Z,24.00
2018-08-04T06:59:25.108Z,24.10
2018-08-04T07:01:53.536Z,24.20
2018-08-04T07:04:21.975Z,24.30
2018-08-04T07:06:50.672Z,24.40
2018-08-04T07:09:19.088Z,24.50
2018-08-04T07:11:47.479Z,24.40
2018-08-04T07:14:15.883Z,24.30
2018-08-04T07:16:44.347Z,24.30
2018-08-04T07:19:12.774Z,24.20
2018-08-04T07:21:42.126Z,24.40
2018-08-04T07:24:10.558Z,24.40
2018-08-04T07:26:38.966Z,24.60
2018-08-04T07:29:07.555Z,24.70
2018-08-04T07:31:36.116Z,24.90
2018-08-04T07:36:32.720Z,25.10
2018-08-04T07:39:01.329Z,25.20
2018-08-04T07:41:29.740Z,25.40
2018-08-04T07:43:58.145Z,25.50
2018-08-04T07:46:26.541Z,25.60
2018-08-04T07:48:55.164Z,25.60
2018-08-04T07:53:51.839Z,25.60
2018-08-04T07:56:20.249Z,25.60
2018-08-04T07:58:48.636Z,25.60
2018-08-04T08:01:17.099Z,25.70
2018-08-04T08:03:45.812Z,25.90
2018-08-04T08:06:14.489Z,25.90
2018-08-04T08:08:42.944Z,26.00
2018-08-04T08:11:11.566Z,26.10
2018-08-04T08:13:39.880Z,26.10
2018-08-04T08:16:09.001Z,26.20
2018-08-04T08:18:37.380Z,26.30
2018-08-04T08:21:06.025Z,26.40
2018-08-04T08:23:34.436Z,26.60
2018-08-04T08:26:12.657Z,26.70
2018-08-04T08:28:41.976Z,26.80
2018-08-04T08:31:10.503Z,26.90
2018-08-04T08:33:39.957Z,26.80
2018-08-04T08:36:08.930Z,26.90
2018-08-04T08:38:37.408Z,27.10
2018-08-04T08:41:05.880Z,27.20
2018-08-04T08:43:34.504Z,27.40
2018-08-04T08:46:02.932Z,27.50
2018-08-04T08:48:31.333Z,27.70
2018-08-04T08:50:59.788Z,27.90
2018-08-04T08:53:28.373Z,28.00
2018-08-04T08:55:56.660Z,28.10
2018-08-04T08:58:25.208Z,28.30
2018-08-04T09:03:22.030Z,28.20
2018-08-04T09:05:50.434Z,28.30
2018-08-04T09:08:18.983Z,28.40
2018-08-04T09:10:47.408Z,28.80
2018-08-04T09:15:44.006Z,29.30
2018-08-04T09:18:12.428Z,29.30
2018-08-04T09:20:40.828Z,29.50
2018-08-04T09:23:09.292Z,29.50
2018-08-04T09:25:37.667Z,29.50
2018-08-04T09:30:34.456Z,30.30
2018-08-04T09:33:02.892Z,30.50
2018-08-04T09:35:31.312Z,31.40
2018-08-04T09:37:59.764Z,32.50
2018-08-04T09:40:28.207Z,33.80
2018-08-04T09:42:56.633Z,34.80
2018-08-04T09:45:25.020Z,35.30
2018-08-04T09:47:53.477Z,35.90
2018-08-04T09:52:50.143Z,35.90
2018-08-04T09:55:18.615Z,36.30
2018-08-04T09:57:47.025Z,35.70
2018-08-04T10:00:22.105Z,36.30
2018-08-04T10:02:50.501Z,36.10
2018-08-04T10:05:18.995Z,36.90
2018-08-04T10:07:47.376Z,37.50
2018-08-04T10:10:15.816Z,37.00
2018-08-04T10:12:44.393Z,37.40
2018-08-04T10:15:12.796Z,37.40
2018-08-04T10:17:41.312Z,36.90
2018-08-04T10:20:11.085Z,36.50
2018-08-04T10:22:39.483Z,35.90
2018-08-04T10:27:36.547Z,36.30
2018-08-04T10:35:03.126Z,37.80
2018-08-04T10:37:31.604Z,38.20
2018-08-04T10:40:03.166Z,39.00
2018-08-04T10:42:31.713Z,38.70
2018-08-04T10:45:00.117Z,38.50
2018-08-04T10:47:28.580Z,39.00
2018-08-04T10:49:57.015Z,39.70
2018-08-04T10:52:25.424Z,39.80
2018-08-04T10:54:54.413Z,39.20
2018-08-04T10:57:22.821Z,38.30
2018-08-04T10:59:51.417Z,39.20
2018-08-04T11:02:19.897Z,39.20
2018-08-04T11:04:48.348Z,39.10
2018-08-04T11:07:16.781Z,38.00
2018-08-04T11:09:45.241Z,38.70
2018-08-04T11:12:13.696Z,38.70
2018-08-04T11:14:42.191Z,39.50
2018-08-04T11:17:10.656Z,39.80
2018-08-04T11:19:39.089Z,40.50
2018-08-04T11:22:07.484Z,40.90
2018-08-04T11:24:36.078Z,40.90
2018-08-04T11:27:04.624Z,40.90
2018-08-04T11:29:33.039Z,41.00
2018-08-04T11:32:01.459Z,40.30
2018-08-04T11:34:29.864Z,39.60
2018-08-04T11:36:58.465Z,39.40
2018-08-04T11:39:26.881Z,39.80
2018-08-04T11:41:55.257Z,39.20
2018-08-04T11:44:23.690Z,39.70
2018-08-04T11:46:52.096Z,39.70
2018-08-04T11:49:20.529Z,39.10
2018-08-04T11:51:48.957Z,38.40
2018-08-04T11:54:17.397Z,39.00
2018-08-04T11:56:45.857Z,39.50
2018-08-04T11:59:14.268Z,38.30
2018-08-04T12:01:42.933Z,38.10
2018-08-04T12:04:11.355Z,37.10
2018-08-04T12:06:39.778Z,36.90
2018-08-04T12:09:10.856Z,37.70
2018-08-04T12:11:39.493Z,38.00
2018-08-04T12:14:08.717Z,38.70
2018-08-04T12:16:37.174Z,38.50
2018-08-04T12:19:06.023Z,37.90
2018-08-04T12:21:34.465Z,38.20
2018-08-04T12:24:03.286Z,37.80
2018-08-04T12:26:31.697Z,37.80
2018-08-04T12:29:00.116Z,37.70
2018-08-04T12:31:28.572Z,38.60
2018-08-04T12:36:25.089Z,38.90
2018-08-04T12:38:53.493Z,38.00
2018-08-04T12:41:21.897Z,37.50
2018-08-04T12:43:50.805Z,37.80
2018-08-04T12:46:19.241Z,38.50
2018-08-04T12:48:47.978Z,38.70
2018-08-04T12:51:16.381Z,38.50
2018-08-04T12:53:44.792Z,38.40
2018-08-04T12:56:13.228Z,38.90
2018-08-04T12:58:41.612Z,38.70
2018-08-04T13:01:10.054Z,38.10
2018-08-04T13:03:38.445Z,38.00
2018-08-04T13:06:06.873Z,36.70
2018-08-04T13:08:35.338Z,37.40
2018-08-04T13:13:31.977Z,36.90
2018-08-04T13:16:00.400Z,35.70
2018-08-04T13:18:28.920Z,35.40
2018-08-04T13:20:58.106Z,35.70
2018-08-04T13:23:26.560Z,35.40
2018-08-04T13:25:54.952Z,35.60
2018-08-04T13:28:23.440Z,35.30
2018-08-04T13:30:52.452Z,34.90
2018-08-04T13:33:21.195Z,35.20
2018-08-04T13:35:49.661Z,35.50
2018-08-04T13:38:18.061Z,35.20
2018-08-04T13:40:46.476Z,35.50
2018-08-04T13:43:15.268Z,35.10
2018-08-04T13:45:43.671Z,35.10
2018-08-04T13:48:12.084Z,35.10
2018-08-04T13:50:40.603Z,34.70
2018-08-04T13:53:09.069Z,34.10
2018-08-04T13:55:37.496Z,33.80
2018-08-04T13:58:06.224Z,34.30
2018-08-04T14:00:34.656Z,34.00
2018-08-04T14:03:03.112Z,33.90
2018-08-04T14:05:31.564Z,34.00
2018-08-04T14:08:00.098Z,34.10
2018-08-04T14:10:30.174Z,34.50
2018-08-04T14:12:58.580Z,34.60
2018-08-04T14:15:27.099Z,34.40
2018-08-04T14:17:55.532Z,34.70
2018-08-04T14:22:52.144Z,35.10
2018-08-04T14:25:20.562Z,35.40
2018-08-04T14:27:48.985Z,34.80
2018-08-04T14:30:17.625Z,34.50
2018-08-04T14:35:14.116Z,34.60
2018-08-04T14:37:42.528Z,34.60
2018-08-04T14:40:10.933Z,34.70
2018-08-04T14:42:39.397Z,34.90
2018-08-04T14:45:07.822Z,35.10
2018-08-04T14:47:36.200Z,35.30
2018-08-04T14:50:04.809Z,35.10
2018-08-04T14:52:33.415Z,34.90
2018-08-04T14:55:02.131Z,34.90
2018-08-04T14:57:30.504Z,34.70
2018-08-04T14:59:58.940Z,34.20
2018-08-04T15:02:27.640Z,34.10
2018-08-04T15:04:56.113Z,34.00
2018-08-04T15:07:24.529Z,33.70
2018-08-04T15:09:53.076Z,33.30
2018-08-04T15:12:21.512Z,33.30
2018-08-04T15:14:49.943Z,33.50
2018-08-04T15:17:18.367Z,33.70
2018-08-04T15:19:47.089Z,33.80
2018-08-04T15:22:15.482Z,34.00
2018-08-04T15:24:43.893Z,34.20
2018-08-04T15:27:12.312Z,34.40
2018-08-04T15:29:40.704Z,34.20
2018-08-04T15:32:09.316Z,33.80
2018-08-04T15:34:37.689Z,33.20
2018-08-04T15:37:06.149Z,33.30
2018-08-04T15:39:34.682Z,33.40
2018-08-04T15:42:03.097Z,33.40
2018-08-04T15:44:31.504Z,33.40
2018-08-04T15:47:00.256Z,33.60
2018-08-04T15:49:28.751Z,33.70
2018-08-04T15:51:57.161Z,33.60
2018-08-04T15:54:25.596Z,33.50
2018-08-04T15:56:54.048Z,33.50
2018-08-04T15:59:22.472Z,33.40
2018-08-04T16:01:50.878Z,33.50
2018-08-04T16:04:19.333Z,33.50
2018-08-04T16:06:47.748Z,33.60
2018-08-04T16:09:16.138Z,33.70
2018-08-04T16:11:44.556Z,33.50
2018-08-04T16:14:13.024Z,33.30
2018-08-04T16:16:41.509Z,33.10
2018-08-04T16:19:09.901Z,33.00
2018-08-04T16:21:38.337Z,32.90
2018-08-04T16:24:06.876Z,32.90
2018-08-04T16:26:35.340Z,32.90
2018-08-04T16:29:04.044Z,32.80
2018-08-04T16:31:32.444Z,32.70
2018-08-04T16:36:28.938Z,32.40
2018-08-04T16:38:57.335Z,32.10
2018-08-04T16:41:25.789Z,32.00
2018-08-04T16:43:54.176Z,31.90
2018-08-04T16:46:22.596Z,31.70
2018-08-04T16:48:51.058Z,31.70
2018-08-04T16:51:19.482Z,31.70
2018-08-04T16:53:48.148Z,31.60
2018-08-04T16:58:44.626Z,31.40
2018-08-04T17:01:13.060Z,31.30
2018-08-04T17:03:41.532Z,31.20
2018-08-04T17:06:09.977Z,31.10
2018-08-04T17:08:38.392Z,30.90
2018-08-04T17:11:06.848Z,30.90
2018-08-04T17:13:35.339Z,30.80
2018-08-04T17:16:03.759Z,30.70
2018-08-04T17:21:00.536Z,30.40
2018-08-04T17:23:28.887Z,30.30
2018-08-04T17:25:57.341Z,30.20
2018-08-04T17:28:25.729Z,30.10
2018-08-04T17:30:54.148Z,30.00
2018-08-04T17:33:22.654Z,29.90
2018-08-04T17:35:51.058Z,29.90
2018-08-04T17:38:19.591Z,29.80
2018-08-04T17:40:48.065Z,29.70
2018-08-04T17:43:16.508Z,29.60
2018-08-04T17:45:44.933Z,29.60
2018-08-04T17:48:13.381Z,29.60
2018-08-04T17:50:42.104Z,29.60
2018-08-04T17:53:10.585Z,29.50
2018-08-04T17:55:38.995Z,29.30
2018-08-04T17:58:07.440Z,29.30
2018-08-04T18:00:35.931Z,29.20
2018-08-04T18:03:04.438Z,29.10
2018-08-04T18:05:32.896Z,29.00
2018-08-04T18:08:01.481Z,28.90
2018-08-04T18:10:29.893Z,28.80
2018-08-04T18:12:58.742Z,28.70
2018-08-04T18:15:27.163Z,28.80
2018-08-04T18:17:55.583Z,28.70
2018-08-04T18:20:24.191Z,28.60
2018-08-04T18:22:52.604Z,28.60
2018-08-04T18:25:21.039Z,28.60
2018-08-04T18:27:49.482Z,28.40
2018-08-04T18:30:17.999Z,28.30
2018-08-04T18:32:46.453Z,28.10
2018-08-04T18:35:14.897Z,28.00
2018-08-04T18:37:43.518Z,27.90
2018-08-04T18:40:11.877Z,27.80
2018-08-04T18:42:40.345Z,27.70
2018-08-04T18:45:08.883Z,27.50
2018-08-04T18:47:37.285Z,27.30
2018-08-04T18:50:05.760Z,27.20
2018-08-04T18:52:34.212Z,27.10
2018-08-04T18:55:02.654Z,27.00
2018-08-04T18:57:31.276Z,26.90
2018-08-04T18:59:59.672Z,26.80
2018-08-04T19:02:28.189Z,26.80
2018-08-04T19:04:56.614Z,26.70
2018-08-04T19:07:25.452Z,26.60
2018-08-04T19:09:53.933Z,26.50
2018-08-04T19:12:22.355Z,26.40
2018-08-04T19:14:50.777Z,26.30
2018-08-04T19:17:19.214Z,26.20
2018-08-04T19:19:47.803Z,26.20
2018-08-04T19:22:16.400Z,26.10
2018-08-04T19:24:44.785Z,25.90
2018-08-04T19:27:13.339Z,25.90
2018-08-04T19:29:41.768Z,25.80
2018-08-04T19:32:10.465Z,25.80
2018-08-04T19:34:38.966Z,25.70
2018-08-04T19:37:07.416Z,25.60
2018-08-04T19:39:35.825Z,25.60
2018-08-04T19:42:04.251Z,25.50
2018-08-04T19:44:32.772Z,25.40
2018-08-04T19:47:01.524Z,25.40
2018-08-04T19:49:30.087Z,25.30
2018-08-04T19:51:58.636Z,25.30
2018-08-04T19:54:27.370Z,25.20
2018-08-04T19:56:56.529Z,25.20
2018-08-04T19:59:25.128Z,25.10
2018-08-04T20:01:53.559Z,25.00
2018-08-04T20:04:21.988Z,25.00
2018-08-04T20:06:50.425Z,24.90
2018-08-04T20:09:18.939Z,24.80
2018-08-04T20:11:47.414Z,24.80
2018-08-04T20:14:15.876Z,24.70
2018-08-04T20:16:44.368Z,24.70
2018-08-04T20:19:15.336Z,24.60
2018-08-04T20:21:44.111Z,24.50
2018-08-04T20:24:12.545Z,24.50
2018-08-04T20:26:40.999Z,24.50
2018-08-04T20:29:09.806Z,24.40
2018-08-04T20:31:39.260Z,24.40
2018-08-04T20:34:08.005Z,24.30
2018-08-04T20:36:36.616Z,24.20
2018-08-04T20:39:08.099Z,24.20
2018-08-04T20:41:36.677Z,24.20
2018-08-04T20:44:05.297Z,24.10
2018-08-04T20:46:33.960Z,24.10
2018-08-04T20:49:02.431Z,24.00
2018-08-04T20:51:31.037Z,23.90
2018-08-04T20:53:59.597Z,23.90
2018-08-04T20:56:28.072Z,23.80
2018-08-04T20:58:56.536Z,23.80
2018-08-04T21:01:35.276Z,23.80
2018-08-04T21:04:03.832Z,23.80
2018-08-04T21:06:32.271Z,23.70
2018-08-04T21:09:00.798Z,23.50
2018-08-04T21:11:29.326Z,23.50
2018-08-04T21:13:57.847Z,23.40
2018-08-04T21:16:26.273Z,23.40
2018-08-04T21:18:54.846Z,23.40
2018-08-04T21:21:23.247Z,23.40
2018-08-04T21:23:51.679Z,23.30
2018-08-04T21:26:20.251Z,23.30
2018-08-04T21:28:48.790Z,23.30
2018-08-04T21:31:17.256Z,23.20
2018-08-04T21:33:45.774Z,23.10
2018-08-04T21:36:14.148Z,23.10
2018-08-04T21:38:42.680Z,23.10
2018-08-04T21:41:11.100Z,23.00
2018-08-04T21:43:39.578Z,23.00
2018-08-04T21:46:07.980Z,23.00
2018-08-04T21:48:36.526Z,23.00
2018-08-04T21:51:04.972Z,22.90
2018-08-04T21:53:33.383Z,22.90
2018-08-04T21:56:01.858Z,22.90
2018-08-04T21:58:30.505Z,22.80
2018-08-04T22:01:04.319Z,22.70
2018-08-04T22:03:32.861Z,22.70
2018-08-04T22:06:01.292Z,22.70
2018-08-04T22:08:41.225Z,22.70
2018-08-04T22:11:09.668Z,22.70
2018-08-04T22:13:38.118Z,22.70
2018-08-04T22:16:06.583Z,22.60
2018-08-04T22:18:34.973Z,22.60
2018-08-04T22:21:03.520Z,22.50
2018-08-04T22:23:31.999Z,22.50
2018-08-04T22:26:00.527Z,22.40
2018-08-04T22:28:28.948Z,22.40
2018-08-04T22:30:57.372Z,22.30
2018-08-04T22:33:25.828Z,22.30
2018-08-04T22:35:54.372Z,22.30
2018-08-04T22:38:22.828Z,22.20
2018-08-04T22:40:51.247Z,22.10
2018-08-04T22:43:19.686Z,22.10
2018-08-04T22:46:08.493Z,22.10
2018-08-04T22:48:37.148Z,22.00
2018-08-04T22:51:05.794Z,22.00
2018-08-04T22:53:34.669Z,21.90
2018-08-04T22:56:03.370Z,21.90
2018-08-04T22:58:31.827Z,21.80
2018-08-04T23:01:00.231Z,21.80
2018-08-04T23:03:28.727Z,21.80
2018-08-04T23:05:57.158Z,21.80
2018-08-04T23:08:25.583Z,21.80
2018-08-04T23:10:53.987Z,21.70
2018-08-04T23:13:22.684Z,21.70
2018-08-04T23:15:51.112Z,21.60
2018-08-04T23:18:19.592Z,21.60
2018-08-04T23:20:48.138Z,21.50
2018-08-04T23:23:16.722Z,21.50
2018-08-04T23:25:45.172Z,21.50
2018-08-04T23:28:13.560Z,21.50
2018-08-04T23:30:42.004Z,21.40
2018-08-04T23:33:10.434Z,21.40
2018-08-04T23:35:38.956Z,21.40
2018-08-04T23:38:07.465Z,21.30
2018-08-04T23:40:35.898Z,21.30
2018-08-04T23:43:04.567Z,21.20
2018-08-04T23:45:33.169Z,21.20
2018-08-04T23:48:01.687Z,21.20
2018-08-04T23:50:30.113Z,21.10
2018-08-04T23:52:58.586Z,21.00
2018-08-04T23:55:27.038Z,21.00
2018-08-04T23:57:55.456Z,20.90
